sensor_id;sensor_type;location;lat;lon;timestamp;temperature;humidity
79698;SHT31;69168;42.708;23.286;2023-06-24T00:02:11;24.75;62.61
79698;SHT31;69168;42.708;23.286;2023-06-24T00:04:38;24.71;61.96
79698;SHT31;69168;42.708;23.286;2023-06-24T00:07:03;24.75;62.03
79698;SHT31;69168;42.708;23.286;2023-06-24T00:09:29;24.77;62.01
79698;SHT31;69168;42.708;23.286;2023-06-24T00:11:58;24.77;62.16
79698;SHT31;69168;42.708;23.286;2023-06-24T00:14:27;24.74;62.42
79698;SHT31;69168;42.708;23.286;2023-06-24T00:16:54;24.71;62.03
79698;SHT31;69168;42.708;23.286;2023-06-24T00:19:21;24.68;62.35
79698;SHT31;69168;42.708;23.286;2023-06-24T00:21:48;24.78;61.97
79698;SHT31;69168;42.708;23.286;2023-06-24T00:24:13;24.80;60.72
79698;SHT31;69168;42.708;23.286;2023-06-24T00:26:39;24.65;61.81
79698;SHT31;69168;42.708;23.286;2023-06-24T00:29:04;24.68;61.54
79698;SHT31;69168;42.708;23.286;2023-06-24T00:31:30;24.57;60.94
79698;SHT31;69168;42.708;23.286;2023-06-24T00:33:55;24.65;61.02
79698;SHT31;69168;42.708;23.286;2023-06-24T00:36:21;24.65;60.20
79698;SHT31;69168;42.708;23.286;2023-06-24T00:38:46;24.64;60.38
79698;SHT31;69168;42.708;23.286;2023-06-24T00:41:14;24.65;60.12
79698;SHT31;69168;42.708;23.286;2023-06-24T00:43:41;24.64;60.17
79698;SHT31;69168;42.708;23.286;2023-06-24T00:46:07;24.61;60.45
79698;SHT31;69168;42.708;23.286;2023-06-24T00:48:32;24.64;60.55
79698;SHT31;69168;42.708;23.286;2023-06-24T00:50:57;24.61;60.48
79698;SHT31;69168;42.708;23.286;2023-06-24T00:53:23;24.59;60.34
79698;SHT31;69168;42.708;23.286;2023-06-24T00:55:50;24.56;60.63
79698;SHT31;69168;42.708;23.286;2023-06-24T00:58:18;24.44;61.11
79698;SHT31;69168;42.708;23.286;2023-06-24T01:00:47;24.35;61.59
79698;SHT31;69168;42.708;23.286;2023-06-24T01:03:13;24.23;62.27
79698;SHT31;69168;42.708;23.286;2023-06-24T01:05:43;24.08;62.88
79698;SHT31;69168;42.708;23.286;2023-06-24T01:08:09;24.06;63.50
79698;SHT31;69168;42.708;23.286;2023-06-24T01:10:41;24.09;62.76
79698;SHT31;69168;42.708;23.286;2023-06-24T01:13:07;23.91;63.52
79698;SHT31;69168;42.708;23.286;2023-06-24T01:15:33;23.55;64.50
79698;SHT31;69168;42.708;23.286;2023-06-24T01:20:31;23.15;65.76
79698;SHT31;69168;42.708;23.286;2023-06-24T01:34:13;23.24;65.76
79698;SHT31;69168;42.708;23.286;2023-06-24T01:36:43;23.08;66.37
79698;SHT31;69168;42.708;23.286;2023-06-24T01:39:12;22.68;67.59
79698;SHT31;69168;42.708;23.286;2023-06-24T01:41:45;22.64;67.89
79698;SHT31;69168;42.708;23.286;2023-06-24T01:44:14;22.55;67.82
79698;SHT31;69168;42.708;23.286;2023-06-24T01:46:41;22.12;69.18
79698;SHT31;69168;42.708;23.286;2023-06-24T01:49:12;21.95;69.73
79698;SHT31;69168;42.708;23.286;2023-06-24T01:51:38;21.96;69.85
79698;SHT31;69168;42.708;23.286;2023-06-24T01:54:10;21.78;70.63
79698;SHT31;69168;42.708;23.286;2023-06-24T01:56:36;21.95;70.21
79698;SHT31;69168;42.708;23.286;2023-06-24T01:59:03;22.16;69.78
79698;SHT31;69168;42.708;23.286;2023-06-24T02:01:31;22.24;69.39
79698;SHT31;69168;42.708;23.286;2023-06-24T02:03:58;22.23;69.75
79698;SHT31;69168;42.708;23.286;2023-06-24T02:06:26;22.46;68.88
79698;SHT31;69168;42.708;23.286;2023-06-24T02:08:53;22.57;68.65
79698;SHT31;69168;42.708;23.286;2023-06-24T02:11:21;22.36;69.17
79698;SHT31;69168;42.708;23.286;2023-06-24T02:13:47;22.26;69.14
79698;SHT31;69168;42.708;23.286;2023-06-24T02:16:14;22.26;69.34
79698;SHT31;69168;42.708;23.286;2023-06-24T02:18:40;22.12;69.51
79698;SHT31;69168;42.708;23.286;2023-06-24T02:21:09;22.13;69.99
79698;SHT31;69168;42.708;23.286;2023-06-24T02:23:36;22.21;69.43
79698;SHT31;69168;42.708;23.286;2023-06-24T02:26:03;22.20;69.74
79698;SHT31;69168;42.708;23.286;2023-06-24T02:28:32;22.12;69.97
79698;SHT31;69168;42.708;23.286;2023-06-24T02:30:58;22.10;70.00
79698;SHT31;69168;42.708;23.286;2023-06-24T02:33:25;22.10;70.07
79698;SHT31;69168;42.708;23.286;2023-06-24T02:35:52;22.03;70.43
79698;SHT31;69168;42.708;23.286;2023-06-24T02:38:17;22.37;69.34
79698;SHT31;69168;42.708;23.286;2023-06-24T02:40:45;22.20;70.04
79698;SHT31;69168;42.708;23.286;2023-06-24T02:43:10;21.98;70.59
79698;SHT31;69168;42.708;23.286;2023-06-24T02:45:36;22.16;70.02
79698;SHT31;69168;42.708;23.286;2023-06-24T02:48:02;22.24;69.85
79698;SHT31;69168;42.708;23.286;2023-06-24T02:50:29;22.40;69.21
79698;SHT31;69168;42.708;23.286;2023-06-24T02:52:55;22.43;68.94
79698;SHT31;69168;42.708;23.286;2023-06-24T02:55:22;22.12;70.17
79698;SHT31;69168;42.708;23.286;2023-06-24T02:57:48;22.02;70.10
79698;SHT31;69168;42.708;23.286;2023-06-24T03:00:16;22.02;70.60
79698;SHT31;69168;42.708;23.286;2023-06-24T03:02:41;22.10;70.48
79698;SHT31;69168;42.708;23.286;2023-06-24T03:05:09;22.30;69.86
79698;SHT31;69168;42.708;23.286;2023-06-24T03:07:36;22.19;70.03
79698;SHT31;69168;42.708;23.286;2023-06-24T03:10:03;22.24;70.00
79698;SHT31;69168;42.708;23.286;2023-06-24T03:12:30;22.40;69.36
79698;SHT31;69168;42.708;23.286;2023-06-24T03:14:55;22.53;69.08
79698;SHT31;69168;42.708;23.286;2023-06-24T03:17:21;22.46;69.29
79698;SHT31;69168;42.708;23.286;2023-06-24T03:19:46;22.30;69.79
79698;SHT31;69168;42.708;23.286;2023-06-24T03:22:11;22.41;69.55
79698;SHT31;69168;42.708;23.286;2023-06-24T03:24:37;22.41;69.69
79698;SHT31;69168;42.708;23.286;2023-06-24T03:27:03;22.47;69.61
79698;SHT31;69168;42.708;23.286;2023-06-24T03:29:28;22.53;69.47
79698;SHT31;69168;42.708;23.286;2023-06-24T03:31:54;22.50;69.61
79698;SHT31;69168;42.708;23.286;2023-06-24T03:34:19;22.43;69.26
79698;SHT31;69168;42.708;23.286;2023-06-24T03:36:45;22.50;69.18
79698;SHT31;69168;42.708;23.286;2023-06-24T03:39:11;22.57;69.24
79698;SHT31;69168;42.708;23.286;2023-06-24T03:41:36;22.60;68.87
79698;SHT31;69168;42.708;23.286;2023-06-24T03:44:02;22.53;69.14
79698;SHT31;69168;42.708;23.286;2023-06-24T03:46:27;22.65;68.94
79698;SHT31;69168;42.708;23.286;2023-06-24T03:48:58;22.64;69.11
79698;SHT31;69168;42.708;23.286;2023-06-24T03:51:24;22.67;69.19
79698;SHT31;69168;42.708;23.286;2023-06-24T03:53:49;22.81;68.33
79698;SHT31;69168;42.708;23.286;2023-06-24T03:56:15;22.75;68.24
79698;SHT31;69168;42.708;23.286;2023-06-24T03:58:41;22.82;67.67
79698;SHT31;69168;42.708;23.286;2023-06-24T04:01:06;22.76;67.90
79698;SHT31;69168;42.708;23.286;2023-06-24T04:03:32;22.65;68.60
79698;SHT31;69168;42.708;23.286;2023-06-24T04:05:57;22.65;68.93
79698;SHT31;69168;42.708;23.286;2023-06-24T04:08:23;22.63;69.16
79698;SHT31;69168;42.708;23.286;2023-06-24T04:10:54;22.53;69.74
79698;SHT31;69168;42.708;23.286;2023-06-24T04:13:20;22.69;69.25
79698;SHT31;69168;42.708;23.286;2023-06-24T04:15:45;22.79;68.67
79698;SHT31;69168;42.708;23.286;2023-06-24T04:18:11;22.89;68.45
79698;SHT31;69168;42.708;23.286;2023-06-24T04:20:36;22.92;68.19
79698;SHT31;69168;42.708;23.286;2023-06-24T04:23:03;22.82;68.26
79698;SHT31;69168;42.708;23.286;2023-06-24T04:25:30;22.88;68.23
79698;SHT31;69168;42.708;23.286;2023-06-24T04:27:55;22.99;67.87
79698;SHT31;69168;42.708;23.286;2023-06-24T04:30:21;23.03;67.78
79698;SHT31;69168;42.708;23.286;2023-06-24T04:32:46;23.06;67.34
79698;SHT31;69168;42.708;23.286;2023-06-24T04:35:11;23.18;66.70
79698;SHT31;69168;42.708;23.286;2023-06-24T04:37:37;23.22;67.45
79698;SHT31;69168;42.708;23.286;2023-06-24T04:40:03;23.08;68.26
79698;SHT31;69168;42.708;23.286;2023-06-24T04:42:28;23.05;68.37
79698;SHT31;69168;42.708;23.286;2023-06-24T04:44:54;23.10;68.22
79698;SHT31;69168;42.708;23.286;2023-06-24T04:47:19;23.09;68.31
79698;SHT31;69168;42.708;23.286;2023-06-24T04:49:45;23.10;68.56
79698;SHT31;69168;42.708;23.286;2023-06-24T04:52:11;23.19;68.07
79698;SHT31;69168;42.708;23.286;2023-06-24T04:54:37;23.10;68.36
79698;SHT31;69168;42.708;23.286;2023-06-24T04:57:05;23.19;68.20
79698;SHT31;69168;42.708;23.286;2023-06-24T04:59:30;23.29;67.98
79698;SHT31;69168;42.708;23.286;2023-06-24T05:01:56;23.42;66.97
79698;SHT31;69168;42.708;23.286;2023-06-24T05:04:21;23.46;67.02
79698;SHT31;69168;42.708;23.286;2023-06-24T05:06:47;23.50;67.42
79698;SHT31;69168;42.708;23.286;2023-06-24T05:09:12;23.60;67.39
79698;SHT31;69168;42.708;23.286;2023-06-24T05:11:40;23.75;67.34
79698;SHT31;69168;42.708;23.286;2023-06-24T05:14:06;23.68;66.88
79698;SHT31;69168;42.708;23.286;2023-06-24T05:16:31;23.67;66.93
79698;SHT31;69168;42.708;23.286;2023-06-24T05:18:57;23.63;67.59
79698;SHT31;69168;42.708;23.286;2023-06-24T05:21:22;23.68;67.44
79698;SHT31;69168;42.708;23.286;2023-06-24T05:23:48;23.75;66.54
79698;SHT31;69168;42.708;23.286;2023-06-24T05:26:13;23.73;66.32
79698;SHT31;69168;42.708;23.286;2023-06-24T05:28:39;23.79;66.52
79698;SHT31;69168;42.708;23.286;2023-06-24T05:31:05;23.68;66.91
79698;SHT31;69168;42.708;23.286;2023-06-24T05:33:30;23.77;66.71
79698;SHT31;69168;42.708;23.286;2023-06-24T05:35:56;23.92;66.31
79698;SHT31;69168;42.708;23.286;2023-06-24T05:38:21;23.89;66.23
79698;SHT31;69168;42.708;23.286;2023-06-24T05:40:47;23.86;66.37
79698;SHT31;69168;42.708;23.286;2023-06-24T05:43:12;23.95;66.45
79698;SHT31;69168;42.708;23.286;2023-06-24T05:45:38;24.01;65.89
79698;SHT31;69168;42.708;23.286;2023-06-24T05:48:03;24.08;65.88
79698;SHT31;69168;42.708;23.286;2023-06-24T05:50:29;24.15;65.59
79698;SHT31;69168;42.708;23.286;2023-06-24T05:52:54;24.26;64.93
79698;SHT31;69168;42.708;23.286;2023-06-24T05:55:20;24.40;64.68
79698;SHT31;69168;42.708;23.286;2023-06-24T05:57:45;24.26;65.00
79698;SHT31;69168;42.708;23.286;2023-06-24T06:00:11;24.32;64.99
79698;SHT31;69168;42.708;23.286;2023-06-24T06:02:37;24.30;64.81
79698;SHT31;69168;42.708;23.286;2023-06-24T06:05:03;24.40;64.44
79698;SHT31;69168;42.708;23.286;2023-06-24T06:07:28;24.35;64.86
79698;SHT31;69168;42.708;23.286;2023-06-24T06:09:54;24.50;64.96
79698;SHT31;69168;42.708;23.286;2023-06-24T06:12:19;24.64;64.35
79698;SHT31;69168;42.708;23.286;2023-06-24T06:14:44;24.75;63.99
79698;SHT31;69168;42.708;23.286;2023-06-24T06:17:13;24.85;63.40
79698;SHT31;69168;42.708;23.286;2023-06-24T06:19:39;24.77;63.90
79698;SHT31;69168;42.708;23.286;2023-06-24T06:22:07;24.84;63.36
79698;SHT31;69168;42.708;23.286;2023-06-24T06:24:33;24.88;62.85
79698;SHT31;69168;42.708;23.286;2023-06-24T06:26:58;24.78;63.58
79698;SHT31;69168;42.708;23.286;2023-06-24T06:29:24;24.78;64.13
79698;SHT31;69168;42.708;23.286;2023-06-24T06:31:49;24.85;63.96
79698;SHT31;69168;42.708;23.286;2023-06-24T06:34:15;24.84;63.73
79698;SHT31;69168;42.708;23.286;2023-06-24T06:36:40;24.90;63.42
79698;SHT31;69168;42.708;23.286;2023-06-24T06:39:06;24.91;63.00
79698;SHT31;69168;42.708;23.286;2023-06-24T06:41:31;24.88;63.62
79698;SHT31;69168;42.708;23.286;2023-06-24T06:43:57;24.96;62.84
79698;SHT31;69168;42.708;23.286;2023-06-24T06:46:22;24.90;62.09
79698;SHT31;69168;42.708;23.286;2023-06-24T06:48:48;24.68;62.30
79698;SHT31;69168;42.708;23.286;2023-06-24T06:51:14;24.90;61.83
79698;SHT31;69168;42.708;23.286;2023-06-24T06:53:39;25.02;62.37
79698;SHT31;69168;42.708;23.286;2023-06-24T06:56:04;24.94;62.58
79698;SHT31;69168;42.708;23.286;2023-06-24T06:58:30;25.01;62.22
79698;SHT31;69168;42.708;23.286;2023-06-24T07:00:55;25.12;62.00
79698;SHT31;69168;42.708;23.286;2023-06-24T07:03:21;25.14;61.71
79698;SHT31;69168;42.708;23.286;2023-06-24T07:05:47;25.11;61.22
79698;SHT31;69168;42.708;23.286;2023-06-24T07:08:12;25.22;60.68
79698;SHT31;69168;42.708;23.286;2023-06-24T07:10:38;25.26;60.29
79698;SHT31;69168;42.708;23.286;2023-06-24T07:13:03;25.22;60.68
79698;SHT31;69168;42.708;23.286;2023-06-24T07:15:29;25.26;60.52
79698;SHT31;69168;42.708;23.286;2023-06-24T07:17:54;25.32;60.18
79698;SHT31;69168;42.708;23.286;2023-06-24T07:20:21;25.26;59.66
79698;SHT31;69168;42.708;23.286;2023-06-24T07:22:47;25.22;59.29
79698;SHT31;69168;42.708;23.286;2023-06-24T07:25:12;25.22;59.95
79698;SHT31;69168;42.708;23.286;2023-06-24T07:27:38;25.33;60.08
79698;SHT31;69168;42.708;23.286;2023-06-24T07:30:05;25.53;60.03
79698;SHT31;69168;42.708;23.286;2023-06-24T07:32:30;25.74;58.53
79698;SHT31;69168;42.708;23.286;2023-06-24T07:34:56;25.67;59.56
79698;SHT31;69168;42.708;23.286;2023-06-24T07:37:22;25.80;59.28
79698;SHT31;69168;42.708;23.286;2023-06-24T07:39:48;25.73;59.17
79698;SHT31;69168;42.708;23.286;2023-06-24T07:42:13;25.64;58.56
79698;SHT31;69168;42.708;23.286;2023-06-24T07:44:47;25.69;58.83
79698;SHT31;69168;42.708;23.286;2023-06-24T07:47:13;25.77;59.47
79698;SHT31;69168;42.708;23.286;2023-06-24T07:49:39;25.80;58.33
79698;SHT31;69168;42.708;23.286;2023-06-24T07:52:05;26.02;57.73
79698;SHT31;69168;42.708;23.286;2023-06-24T07:54:31;26.24;57.80
79698;SHT31;69168;42.708;23.286;2023-06-24T07:56:57;26.08;58.00
79698;SHT31;69168;42.708;23.286;2023-06-24T07:59:22;25.98;58.48
79698;SHT31;69168;42.708;23.286;2023-06-24T08:01:48;25.94;59.87
79698;SHT31;69168;42.708;23.286;2023-06-24T08:04:14;26.02;60.02
79698;SHT31;69168;42.708;23.286;2023-06-24T08:06:40;26.08;60.22
79698;SHT31;69168;42.708;23.286;2023-06-24T08:09:05;26.12;60.18
79698;SHT31;69168;42.708;23.286;2023-06-24T08:11:31;26.19;60.05
79698;SHT31;69168;42.708;23.286;2023-06-24T08:13:56;26.24;59.80
79698;SHT31;69168;42.708;23.286;2023-06-24T08:16:22;26.25;59.27
79698;SHT31;69168;42.708;23.286;2023-06-24T08:18:47;26.29;58.93
79698;SHT31;69168;42.708;23.286;2023-06-24T08:21:13;26.21;57.90
79698;SHT31;69168;42.708;23.286;2023-06-24T08:23:38;26.32;57.46
79698;SHT31;69168;42.708;23.286;2023-06-24T08:26:04;26.22;57.80
79698;SHT31;69168;42.708;23.286;2023-06-24T08:28:29;26.31;58.58
79698;SHT31;69168;42.708;23.286;2023-06-24T08:30:54;26.32;57.86
79698;SHT31;69168;42.708;23.286;2023-06-24T08:33:20;26.25;57.35
79698;SHT31;69168;42.708;23.286;2023-06-24T08:35:45;26.33;58.13
79698;SHT31;69168;42.708;23.286;2023-06-24T08:38:11;26.60;59.26
79698;SHT31;69168;42.708;23.286;2023-06-24T08:40:36;26.72;57.79
79698;SHT31;69168;42.708;23.286;2023-06-24T08:43:06;26.95;56.82
79698;SHT31;69168;42.708;23.286;2023-06-24T08:45:31;26.97;56.94
79698;SHT31;69168;42.708;23.286;2023-06-24T08:47:57;26.88;57.01
79698;SHT31;69168;42.708;23.286;2023-06-24T08:50:26;26.84;57.83
79698;SHT31;69168;42.708;23.286;2023-06-24T08:52:52;26.82;58.20
79698;SHT31;69168;42.708;23.286;2023-06-24T08:55:24;26.88;58.09
79698;SHT31;69168;42.708;23.286;2023-06-24T08:57:53;26.93;57.28
79698;SHT31;69168;42.708;23.286;2023-06-24T09:00:18;27.00;56.71
79698;SHT31;69168;42.708;23.286;2023-06-24T09:02:44;27.24;55.20
79698;SHT31;69168;42.708;23.286;2023-06-24T09:05:10;27.16;55.79
79698;SHT31;69168;42.708;23.286;2023-06-24T09:07:36;27.08;55.84
79698;SHT31;69168;42.708;23.286;2023-06-24T09:10:02;27.11;57.68
79698;SHT31;69168;42.708;23.286;2023-06-24T09:12:28;27.10;57.50
79698;SHT31;69168;42.708;23.286;2023-06-24T09:14:53;27.24;57.53
79698;SHT31;69168;42.708;23.286;2023-06-24T09:17:19;27.32;56.07
79698;SHT31;69168;42.708;23.286;2023-06-24T09:19:48;27.43;55.72
79698;SHT31;69168;42.708;23.286;2023-06-24T09:22:13;27.42;55.35
79698;SHT31;69168;42.708;23.286;2023-06-24T09:24:43;27.48;55.68
79698;SHT31;69168;42.708;23.286;2023-06-24T09:27:16;27.41;55.70
79698;SHT31;69168;42.708;23.286;2023-06-24T09:29:44;27.71;54.55
79698;SHT31;69168;42.708;23.286;2023-06-24T09:32:10;27.62;53.99
79698;SHT31;69168;42.708;23.286;2023-06-24T09:34:35;27.56;53.78
79698;SHT31;69168;42.708;23.286;2023-06-24T09:37:01;27.55;54.57
79698;SHT31;69168;42.708;23.286;2023-06-24T09:39:27;27.66;55.30
79698;SHT31;69168;42.708;23.286;2023-06-24T09:41:57;27.76;54.61
79698;SHT31;69168;42.708;23.286;2023-06-24T09:44:22;27.71;53.57
79698;SHT31;69168;42.708;23.286;2023-06-24T09:46:48;27.84;54.03
79698;SHT31;69168;42.708;23.286;2023-06-24T09:49:13;27.86;54.29
79698;SHT31;69168;42.708;23.286;2023-06-24T09:51:43;27.93;55.34
79698;SHT31;69168;42.708;23.286;2023-06-24T09:54:11;28.12;53.71
79698;SHT31;69168;42.708;23.286;2023-06-24T09:56:45;28.31;52.21
79698;SHT31;69168;42.708;23.286;2023-06-24T09:59:12;28.38;52.11
79698;SHT31;69168;42.708;23.286;2023-06-24T10:01:43;28.38;53.36
79698;SHT31;69168;42.708;23.286;2023-06-24T10:04:18;28.48;53.20
79698;SHT31;69168;42.708;23.286;2023-06-24T10:06:44;28.63;51.44
79698;SHT31;69168;42.708;23.286;2023-06-24T10:09:10;28.53;51.82
79698;SHT31;69168;42.708;23.286;2023-06-24T10:11:39;28.66;51.04
79698;SHT31;69168;42.708;23.286;2023-06-24T10:14:04;28.82;50.08
79698;SHT31;69168;42.708;23.286;2023-06-24T10:16:30;28.94;49.02
79698;SHT31;69168;42.708;23.286;2023-06-24T10:19:03;28.97;50.48
79698;SHT31;69168;42.708;23.286;2023-06-24T10:22:06;28.93;51.50
79698;SHT31;69168;42.708;23.286;2023-06-24T10:24:34;29.00;51.63
79698;SHT31;69168;42.708;23.286;2023-06-24T10:27:08;29.17;51.17
79698;SHT31;69168;42.708;23.286;2023-06-24T10:29:37;29.17;50.27
79698;SHT31;69168;42.708;23.286;2023-06-24T10:32:07;29.21;50.54
79698;SHT31;69168;42.708;23.286;2023-06-24T10:34:34;29.32;49.68
79698;SHT31;69168;42.708;23.286;2023-06-24T10:39:50;29.58;49.22
79698;SHT31;69168;42.708;23.286;2023-06-24T10:42:32;29.72;48.21
79698;SHT31;69168;42.708;23.286;2023-06-24T10:47:35;29.83;48.54
79698;SHT31;69168;42.708;23.286;2023-06-24T10:50:01;30.03;49.02
79698;SHT31;69168;42.708;23.286;2023-06-24T10:52:26;30.38;45.57
79698;SHT31;69168;42.708;23.286;2023-06-24T10:54:52;30.42;46.22
79698;SHT31;69168;42.708;23.286;2023-06-24T10:57:25;30.52;47.46
79698;SHT31;69168;42.708;23.286;2023-06-24T10:59:53;30.61;47.63
79698;SHT31;69168;42.708;23.286;2023-06-24T11:02:20;30.79;46.75
79698;SHT31;69168;42.708;23.286;2023-06-24T11:04:51;30.97;45.41
79698;SHT31;69168;42.708;23.286;2023-06-24T11:07:18;31.16;45.33
79698;SHT31;69168;42.708;23.286;2023-06-24T11:09:54;31.37;43.95
79698;SHT31;69168;42.708;23.286;2023-06-24T11:12:39;31.61;44.07
79698;SHT31;69168;42.708;23.286;2023-06-24T11:15:06;31.82;44.40
79698;SHT31;69168;42.708;23.286;2023-06-24T11:17:35;32.06;43.50
79698;SHT31;69168;42.708;23.286;2023-06-24T11:20:01;32.33;42.62
79698;SHT31;69168;42.708;23.286;2023-06-24T11:22:27;32.64;41.56
79698;SHT31;69168;42.708;23.286;2023-06-24T11:24:53;32.64;39.88
79698;SHT31;69168;42.708;23.286;2023-06-24T11:27:28;33.02;38.88
79698;SHT31;69168;42.708;23.286;2023-06-24T11:29:57;33.34;39.89
79698;SHT31;69168;42.708;23.286;2023-06-24T11:32:23;33.76;39.57
79698;SHT31;69168;42.708;23.286;2023-06-24T11:34:49;34.00;38.98
79698;SHT31;69168;42.708;23.286;2023-06-24T11:37:17;34.28;38.13
79698;SHT31;69168;42.708;23.286;2023-06-24T11:39:43;34.36;38.70
79698;SHT31;69168;42.708;23.286;2023-06-24T11:42:10;34.67;38.92
79698;SHT31;69168;42.708;23.286;2023-06-24T11:44:38;34.74;36.90
79698;SHT31;69168;42.708;23.286;2023-06-24T11:47:07;34.32;34.51
79698;SHT31;69168;42.708;23.286;2023-06-24T11:49:48;33.73;35.66
79698;SHT31;69168;42.708;23.286;2023-06-24T11:52:14;33.56;36.78
79698;SHT31;69168;42.708;23.286;2023-06-24T11:54:42;33.60;38.05
79698;SHT31;69168;42.708;23.286;2023-06-24T11:57:08;33.42;38.64
79698;SHT31;69168;42.708;23.286;2023-06-24T11:59:34;33.33;38.05
79698;SHT31;69168;42.708;23.286;2023-06-24T12:01:59;32.89;38.49
79698;SHT31;69168;42.708;23.286;2023-06-24T12:04:32;32.71;39.24
79698;SHT31;69168;42.708;23.286;2023-06-24T12:06:58;32.72;39.31
79698;SHT31;69168;42.708;23.286;2023-06-24T12:09:24;32.79;38.09
79698;SHT31;69168;42.708;23.286;2023-06-24T12:11:50;32.77;38.45
79698;SHT31;69168;42.708;23.286;2023-06-24T12:14:16;32.54;39.07
79698;SHT31;69168;42.708;23.286;2023-06-24T12:16:41;32.43;39.45
79698;SHT31;69168;42.708;23.286;2023-06-24T12:19:07;32.51;38.78
79698;SHT31;69168;42.708;23.286;2023-06-24T12:21:33;32.40;39.51
79698;SHT31;69168;42.708;23.286;2023-06-24T12:23:59;32.54;38.95
79698;SHT31;69168;42.708;23.286;2023-06-24T12:26:24;32.34;39.49
79698;SHT31;69168;42.708;23.286;2023-06-24T12:28:50;32.13;39.97
79698;SHT31;69168;42.708;23.286;2023-06-24T12:31:15;31.85;40.16
79698;SHT31;69168;42.708;23.286;2023-06-24T12:33:41;31.89;40.39
79698;SHT31;69168;42.708;23.286;2023-06-24T12:36:06;31.76;40.86
79698;SHT31;69168;42.708;23.286;2023-06-24T12:38:31;31.67;41.09
79698;SHT31;69168;42.708;23.286;2023-06-24T12:40:57;31.35;42.05
79698;SHT31;69168;42.708;23.286;2023-06-24T12:43:23;31.29;42.71
79698;SHT31;69168;42.708;23.286;2023-06-24T12:45:49;31.07;42.87
79698;SHT31;69168;42.708;23.286;2023-06-24T12:48:16;31.12;42.48
79698;SHT31;69168;42.708;23.286;2023-06-24T12:50:41;31.02;42.55
79698;SHT31;69168;42.708;23.286;2023-06-24T12:53:07;30.86;43.35
79698;SHT31;69168;42.708;23.286;2023-06-24T12:55:32;30.74;42.86
79698;SHT31;69168;42.708;23.286;2023-06-24T12:57:58;30.69;41.64
79698;SHT31;69168;42.708;23.286;2023-06-24T13:00:24;30.58;43.15
79698;SHT31;69168;42.708;23.286;2023-06-24T13:02:50;30.47;44.40
79698;SHT31;69168;42.708;23.286;2023-06-24T13:05:16;30.35;45.40
79698;SHT31;69168;42.708;23.286;2023-06-24T13:07:41;30.41;44.96
79698;SHT31;69168;42.708;23.286;2023-06-24T13:10:07;30.34;44.94
79698;SHT31;69168;42.708;23.286;2023-06-24T13:12:33;30.24;45.14
79698;SHT31;69168;42.708;23.286;2023-06-24T13:14:58;29.59;49.49
79698;SHT31;69168;42.708;23.286;2023-06-24T13:17:24;28.83;52.43
79698;SHT31;69168;42.708;23.286;2023-06-24T13:19:50;28.60;52.96
79698;SHT31;69168;42.708;23.286;2023-06-24T13:22:15;28.58;52.94
79698;SHT31;69168;42.708;23.286;2023-06-24T13:24:41;28.27;53.07
79698;SHT31;69168;42.708;23.286;2023-06-24T13:27:07;28.29;52.87
79698;SHT31;69168;42.708;23.286;2023-06-24T13:29:32;28.27;52.73
79698;SHT31;69168;42.708;23.286;2023-06-24T13:31:57;28.38;51.88
79698;SHT31;69168;42.708;23.286;2023-06-24T13:34:23;28.25;49.26
79698;SHT31;69168;42.708;23.286;2023-06-24T13:36:48;28.29;46.32
79698;SHT31;69168;42.708;23.286;2023-06-24T13:39:15;28.12;46.33
79698;SHT31;69168;42.708;23.286;2023-06-24T13:41:43;28.15;45.39
79698;SHT31;69168;42.708;23.286;2023-06-24T13:44:09;27.83;46.66
79698;SHT31;69168;42.708;23.286;2023-06-24T13:46:35;27.55;50.30
79698;SHT31;69168;42.708;23.286;2023-06-24T13:49:01;27.60;51.05
79698;SHT31;69168;42.708;23.286;2023-06-24T13:51:27;27.38;51.95
79698;SHT31;69168;42.708;23.286;2023-06-24T13:53:54;27.45;53.20
79698;SHT31;69168;42.708;23.286;2023-06-24T13:56:21;27.45;54.40
79698;SHT31;69168;42.708;23.286;2023-06-24T13:58:47;27.32;56.06
79698;SHT31;69168;42.708;23.286;2023-06-24T14:01:12;27.04;56.31
79698;SHT31;69168;42.708;23.286;2023-06-24T14:03:38;26.91;57.98
79698;SHT31;69168;42.708;23.286;2023-06-24T14:06:04;26.70;59.08
79698;SHT31;69168;42.708;23.286;2023-06-24T14:08:31;26.55;56.50
79698;SHT31;69168;42.708;23.286;2023-06-24T14:10:58;26.42;57.59
79698;SHT31;69168;42.708;23.286;2023-06-24T14:13:25;26.33;55.67
79698;SHT31;69168;42.708;23.286;2023-06-24T14:15:51;25.66;54.85
79698;SHT31;69168;42.708;23.286;2023-06-24T14:18:17;25.53;55.99
79698;SHT31;69168;42.708;23.286;2023-06-24T14:20:43;25.42;55.91
79698;SHT31;69168;42.708;23.286;2023-06-24T14:23:09;25.45;53.64
79698;SHT31;69168;42.708;23.286;2023-06-24T14:25:34;25.54;53.52
79698;SHT31;69168;42.708;23.286;2023-06-24T14:28:00;25.59;52.81
79698;SHT31;69168;42.708;23.286;2023-06-24T14:30:25;25.47;55.75
79698;SHT31;69168;42.708;23.286;2023-06-24T14:32:50;25.42;54.76
79698;SHT31;69168;42.708;23.286;2023-06-24T14:35:16;25.15;54.09
79698;SHT31;69168;42.708;23.286;2023-06-24T14:37:41;25.33;53.63
79698;SHT31;69168;42.708;23.286;2023-06-24T14:40:08;25.51;54.87
79698;SHT31;69168;42.708;23.286;2023-06-24T14:42:35;25.53;57.19
79698;SHT31;69168;42.708;23.286;2023-06-24T14:45:00;25.54;57.20
79698;SHT31;69168;42.708;23.286;2023-06-24T14:47:26;25.30;56.23
79698;SHT31;69168;42.708;23.286;2023-06-24T14:49:51;25.43;56.89
79698;SHT31;69168;42.708;23.286;2023-06-24T14:52:17;25.51;58.08
79698;SHT31;69168;42.708;23.286;2023-06-24T14:54:42;25.73;58.07
79698;SHT31;69168;42.708;23.286;2023-06-24T14:57:08;25.98;57.74
79698;SHT31;69168;42.708;23.286;2023-06-24T14:59:33;26.24;61.70
79698;SHT31;69168;42.708;23.286;2023-06-24T15:01:59;26.28;61.86
79698;SHT31;69168;42.708;23.286;2023-06-24T15:04:24;26.49;59.48
79698;SHT31;69168;42.708;23.286;2023-06-24T15:06:50;26.42;59.57
79698;SHT31;69168;42.708;23.286;2023-06-24T15:09:15;26.40;56.89
79698;SHT31;69168;42.708;23.286;2023-06-24T15:11:41;26.35;55.90
79698;SHT31;69168;42.708;23.286;2023-06-24T15:14:06;26.33;55.15
79698;SHT31;69168;42.708;23.286;2023-06-24T15:16:32;26.24;53.61
79698;SHT31;69168;42.708;23.286;2023-06-24T15:18:57;26.18;52.37
79698;SHT31;69168;42.708;23.286;2023-06-24T15:21:22;26.21;53.00
79698;SHT31;69168;42.708;23.286;2023-06-24T15:23:48;26.18;52.87
79698;SHT31;69168;42.708;23.286;2023-06-24T15:26:13;25.93;53.82
79698;SHT31;69168;42.708;23.286;2023-06-24T15:28:39;25.78;54.83
79698;SHT31;69168;42.708;23.286;2023-06-24T15:31:04;25.81;55.28